createdAt,value
2023-10-14T17:31:49.257Z,92645.59
2023-10-14T17:34:20.821Z,92640.66
2023-10-14T17:36:50.256Z,92644.63
2023-10-14T17:39:23.055Z,92649.41
2023-10-14T17:41:52.597Z,92639.19
2023-10-14T17:44:21.889Z,92641.38
2023-10-14T17:46:52.605Z,92645.06
2023-10-14T17:49:23.482Z,92641.34
2023-10-14T17:51:53.069Z,92636.63
2023-10-14T17:54:22.401Z,92645.13
2023-10-14T17:56:51.826Z,92649.00
2023-10-14T17:59:21.188Z,92648.84
2023-10-14T18:01:52.076Z,92651.03
2023-10-14T18:04:21.501Z,92644.81
2023-10-14T18:06:51.331Z,92642.84
2023-10-14T18:09:21.356Z,92645.00
2023-10-14T18:11:51.608Z,92652.44
2023-10-14T18:14:21.545Z,92653.66
2023-10-14T18:17:03.345Z,92645.78
2023-10-14T18:19:33.668Z,92654.16
2023-10-14T18:22:02.930Z,92647.78
2023-10-14T18:24:34.362Z,92648.03
2023-10-14T18:27:03.666Z,92640.97
2023-10-14T18:29:33.530Z,92640.25
2023-10-14T18:32:04.626Z,92646.69
2023-10-14T18:34:34.135Z,92643.19
2023-10-14T18:37:03.800Z,92643.72
2023-10-14T18:39:34.301Z,92640.88
2023-10-14T18:42:03.589Z,92642.94
2023-10-14T18:47:45.202Z,92645.16
2023-10-14T18:50:16.046Z,92648.75
2023-10-14T18:52:45.558Z,92655.03
2023-10-14T18:55:18.302Z,92660.78
2023-10-14T18:57:49.447Z,92659.38
2023-10-14T19:00:20.951Z,92661.97
2023-10-14T19:02:54.709Z,92653.19
2023-10-14T19:05:24.347Z,92655.94
2023-10-14T19:07:53.775Z,92654.63
2023-10-14T19:10:25.082Z,92648.91
2023-10-14T19:12:56.011Z,92653.31
2023-10-14T19:15:27.750Z,92658.69
2023-10-14T19:17:58.706Z,92651.31
2023-10-14T19:20:28.040Z,92652.78
2023-10-14T19:23:15.624Z,92655.75
2023-10-14T19:25:49.622Z,92651.47
2023-10-14T19:28:22.721Z,92650.69
2023-10-14T19:30:54.308Z,92644.88
2023-10-14T19:33:26.406Z,92645.22
2023-10-14T19:35:57.847Z,92647.13
2023-10-14T19:38:28.078Z,92652.59
2023-10-14T19:41:03.730Z,92645.72
2023-10-14T19:43:35.460Z,92646.06
2023-10-14T19:46:10.221Z,92650.84
2023-10-14T19:48:44.669Z,92651.06
2023-10-14T19:51:15.308Z,92647.88
2023-10-14T19:53:44.922Z,92644.66
2023-10-14T19:56:16.061Z,92645.63
2023-10-14T19:58:45.652Z,92649.91
2023-10-14T20:01:17.634Z,92638.63
2023-10-14T20:03:49.567Z,92641.59
2023-10-14T20:06:20.726Z,92643.38
2023-10-14T20:08:50.978Z,92638.16
2023-10-14T20:11:20.858Z,92643.75
2023-10-14T20:13:50.423Z,92636.16
2023-10-14T20:16:20.061Z,92637.34
2023-10-14T20:18:50.857Z,92638.78
2023-10-14T20:21:20.437Z,92637.09
2023-10-14T20:23:50.774Z,92622.91
2023-10-14T20:26:20.290Z,92628.56
2023-10-14T20:28:49.830Z,92625.28
2023-10-14T20:31:24.204Z,92624.53
2023-10-14T20:33:57.097Z,92626.94
2023-10-14T20:36:26.378Z,92621.34
2023-10-14T20:38:55.914Z,92629.66
2023-10-14T20:41:25.662Z,92626.56
2023-10-14T20:43:56.766Z,92620.63
2023-10-14T20:46:26.481Z,92619.72
2023-10-14T20:48:57.387Z,92618.75
2023-10-14T20:51:26.783Z,92616.00
2023-10-14T20:53:57.184Z,92620.28
2023-10-14T20:56:26.683Z,92615.41
2023-10-14T20:58:56.021Z,92614.25
2023-10-14T21:01:25.560Z,92612.91
2023-10-14T21:03:56.903Z,92616.84
2023-10-14T21:06:26.455Z,92607.81
2023-10-14T21:08:55.885Z,92614.25
2023-10-14T21:11:25.618Z,92619.22
2023-10-14T21:13:56.003Z,92616.81
2023-10-14T21:16:25.859Z,92611.13
2023-10-14T21:18:58.679Z,92607.94
2023-10-14T21:21:27.773Z,92612.31
2023-10-14T21:23:57.152Z,92612.31
2023-10-14T21:26:27.255Z,92612.06
2023-10-14T21:28:57.766Z,92601.06
2023-10-14T21:31:27.189Z,92600.53
2023-10-14T21:33:58.917Z,92603.75
2023-10-14T21:36:28.291Z,92593.44
2023-10-14T21:38:57.621Z,92597.81
2023-10-14T21:41:27.057Z,92591.78
2023-10-14T21:43:57.820Z,92600.94
2023-10-14T21:47:45.331Z,92598.91
2023-10-14T21:50:19.361Z,92595.47
2023-10-14T21:52:50.688Z,92595.75
2023-10-14T21:55:21.557Z,92593.03
2023-10-14T21:57:51.957Z,92596.59
2023-10-14T22:00:23.640Z,92593.13
2023-10-14T22:02:58.008Z,92591.59
2023-10-14T22:05:28.839Z,92590.19
2023-10-14T22:07:59.329Z,92592.31
2023-10-14T22:10:30.289Z,92591.69
2023-10-14T22:13:00.017Z,92591.69
2023-10-14T22:15:32.711Z,92587.53
2023-10-14T22:18:08.697Z,92587.88
2023-10-14T22:20:41.530Z,92585.59
2023-10-14T22:23:12.126Z,92592.25
2023-10-14T22:25:46.861Z,92585.72
2023-10-14T22:28:17.750Z,92576.09
2023-10-14T22:30:47.369Z,92577.16
2023-10-14T22:33:18.226Z,92569.69
2023-10-14T22:35:47.850Z,92564.25
2023-10-14T22:38:17.215Z,92568.63
2023-10-14T22:40:46.711Z,92568.00
2023-10-14T22:43:17.665Z,92559.38
2023-10-14T22:45:48.851Z,92562.22
2023-10-14T22:48:22.541Z,92570.75
2023-10-14T22:50:57.025Z,92568.63
2023-10-14T22:53:27.253Z,92557.28
2023-10-14T22:55:56.939Z,92563.66
2023-10-14T22:58:27.009Z,92565.19
2023-10-14T23:00:56.511Z,92564.16
2023-10-14T23:03:27.390Z,92566.03
2023-10-14T23:05:56.835Z,92559.03
2023-10-14T23:08:26.217Z,92553.72
2023-10-14T23:10:55.615Z,92555.59
2023-10-14T23:13:25.173Z,92552.84
2023-10-14T23:15:54.508Z,92556.50
2023-10-14T23:18:23.889Z,92557.34
2023-10-14T23:20:54.663Z,92552.16
2023-10-14T23:23:23.943Z,92550.38
2023-10-14T23:25:53.422Z,92550.38
2023-10-14T23:28:22.748Z,92544.16
2023-10-14T23:30:52.279Z,92545.19
2023-10-14T23:33:21.710Z,92545.50
2023-10-14T23:35:51.100Z,92544.56
2023-10-14T23:38:21.883Z,92545.72
2023-10-14T23:40:51.305Z,92542.28
2023-10-14T23:43:20.950Z,92540.19
2023-10-14T23:45:52.102Z,92537.00
2023-10-14T23:48:22.491Z,92533.78
2023-10-14T23:50:51.940Z,92526.69
2023-10-14T23:53:22.945Z,92530.94
2023-10-14T23:55:55.570Z,92534.63
2023-10-14T23:58:25.084Z,92526.94
